Meteo Giornale » Osservazioni meteo Italia » Cervia

ore: 19:55 - Osservazioni Meteo Cervia
Lat. 44° 13' N Lon. 12° 18' E Alt. 6 metri s.l.m.

sereno Europe/Rome

29 °C

Sereno

Temp. 24 Ore

21 °C

32 °C

Est

14.8 Km/h

Dew point 25 °C

Umidità 79 %

Visibilità  10 Km

Il sole sorge alle ore 05:56

Il sole tramonta alle ore 20:38

Data e Ora Cielo e Fenomeni T °C DP °C Um. % Pres. hPa Vis. km Vento km/h
Oggi h: 19:55 sereno Sereno 29 25 79 1006 10 E 14.8
Oggi h: 18:55 sereno Sereno 29 23 70 1006 10 E 16.7
Oggi h: 17:55 sereno Sereno 30 22 62 1006 10 E 22.2
Oggi h: 16:55 sereno Sereno 31 23 62 1007 10 E 25.9
Oggi h: 15:55 sereno Sereno 32 22 55 1007 10 E 22.2
Oggi h: 14:55 sereno Sereno 32 22 55 1007 10 E/NE 18.5
Oggi h: 13:55 sereno Sereno 32 22 55 1007 10 NE 18.5
Oggi h: 11:55 sereno Sereno 32 19 46 1008 10 E/NE 11.1
Oggi h: 10:55 sereno Sereno 30 18 48 1009 10 N 5.5
Oggi h: 09:55 sereno Sereno 29 19 54 1009 10 N 5.5
Oggi h: 08:55 sereno Sereno 28 21 65 1009 10 O 7.4
Oggi h: 07:55 sereno Sereno 25 19 69 1008 10 O/NO 9.3
Oggi h: 06:55 sereno Sereno 22 17 73 1009 10 O 11.1
Oggi h: 05:55 poco_nuvoloso Poco Nuvoloso 21 17 77 1009 10 O 7.4
Oggi h: 04:55 sereno Sereno 22 17 73 1008 10 O 7.4
Oggi h: 03:55 sereno Sereno 23 17 68 1008 10 SO 7.4
Oggi h: 02:55 sereno Sereno 23 17 68 1008 10 SO 11.1
Oggi h: 01:55 sereno Sereno 23 17 68 1009 10 SO 9.3
Oggi h: 00:55 sereno Sereno 23 17 68 1009 10 N 3.7
Ieri h: 23:55 sereno Sereno 25 18 65 1009 10 N 3.7
Ieri h: 22:55 sereno Sereno 26 17 57 1009 10 S/SE 7.4
Ieri h: 21:55 sereno Sereno 27 16 50 1009 10 N 5.5